sensor_id;sensor_type;location;lat;lon;timestamp;P1;durP1;ratioP1;P2;durP2;ratioP2
38591;SDS011;24356;48.460;11.450;2023-04-15T00:00:04;6.22;;;4.25;;
38591;SDS011;24356;48.460;11.450;2023-04-15T00:02:32;5.47;;;3.72;;
38591;SDS011;24356;48.460;11.450;2023-04-15T00:04:58;5.00;;;3.47;;
38591;SDS011;24356;48.460;11.450;2023-04-15T00:07:23;6.68;;;4.50;;
38591;SDS011;24356;48.460;11.450;2023-04-15T00:09:49;6.20;;;4.40;;
38591;SDS011;24356;48.460;11.450;2023-04-15T00:12:19;4.40;;;3.40;;
38591;SDS011;24356;48.460;11.450;2023-04-15T00:14:45;7.78;;;4.53;;
38591;SDS011;24356;48.460;11.450;2023-04-15T00:17:11;6.43;;;4.07;;
38591;SDS011;24356;48.460;11.450;2023-04-15T00:19:38;7.22;;;4.90;;
38591;SDS011;24356;48.460;11.450;2023-04-15T00:22:04;4.90;;;3.53;;
38591;SDS011;24356;48.460;11.450;2023-04-15T00:24:31;4.57;;;3.30;;
38591;SDS011;24356;48.460;11.450;2023-04-15T00:26:56;6.28;;;4.00;;
38591;SDS011;24356;48.460;11.450;2023-04-15T00:29:22;5.45;;;3.22;;
38591;SDS011;24356;48.460;11.450;2023-04-15T00:31:48;5.25;;;3.45;;
38591;SDS011;24356;48.460;11.450;2023-04-15T00:34:14;5.78;;;3.25;;
38591;SDS011;24356;48.460;11.450;2023-04-15T00:36:39;5.57;;;3.17;;
38591;SDS011;24356;48.460;11.450;2023-04-15T00:39:05;5.40;;;3.58;;
38591;SDS011;24356;48.460;11.450;2023-04-15T00:41:30;6.85;;;3.80;;
38591;SDS011;24356;48.460;11.450;2023-04-15T00:43:58;5.20;;;3.83;;
38591;SDS011;24356;48.460;11.450;2023-04-15T00:46:24;6.03;;;4.38;;
38591;SDS011;24356;48.460;11.450;2023-04-15T00:48:52;4.80;;;3.40;;
38591;SDS011;24356;48.460;11.450;2023-04-15T00:51:19;5.60;;;3.97;;
38591;SDS011;24356;48.460;11.450;2023-04-15T00:53:44;7.93;;;4.10;;
38591;SDS011;24356;48.460;11.450;2023-04-15T00:56:11;6.70;;;4.40;;
38591;SDS011;24356;48.460;11.450;2023-04-15T00:58:38;5.18;;;3.95;;
38591;SDS011;24356;48.460;11.450;2023-04-15T01:01:04;6.82;;;4.00;;
38591;SDS011;24356;48.460;11.450;2023-04-15T01:03:31;8.10;;;5.07;;
38591;SDS011;24356;48.460;11.450;2023-04-15T01:05:56;5.22;;;3.45;;
38591;SDS011;24356;48.460;11.450;2023-04-15T01:08:25;6.50;;;3.72;;
38591;SDS011;24356;48.460;11.450;2023-04-15T01:10:54;7.28;;;4.20;;
38591;SDS011;24356;48.460;11.450;2023-04-15T01:13:22;6.85;;;4.97;;
38591;SDS011;24356;48.460;11.450;2023-04-15T01:15:48;4.90;;;3.80;;
38591;SDS011;24356;48.460;11.450;2023-04-15T01:18:15;8.98;;;4.80;;
38591;SDS011;24356;48.460;11.450;2023-04-15T01:20:43;6.05;;;4.32;;
38591;SDS011;24356;48.460;11.450;2023-04-15T01:23:10;6.35;;;4.15;;
38591;SDS011;24356;48.460;11.450;2023-04-15T01:25:37;7.05;;;4.28;;
38591;SDS011;24356;48.460;11.450;2023-04-15T01:28:03;11.18;;;6.32;;
38591;SDS011;24356;48.460;11.450;2023-04-15T01:30:32;7.32;;;4.13;;
38591;SDS011;24356;48.460;11.450;2023-04-15T01:32:58;8.15;;;5.32;;
38591;SDS011;24356;48.460;11.450;2023-04-15T01:35:25;9.45;;;4.82;;
38591;SDS011;24356;48.460;11.450;2023-04-15T01:37:52;8.68;;;4.60;;
38591;SDS011;24356;48.460;11.450;2023-04-15T01:40:20;9.27;;;5.03;;
38591;SDS011;24356;48.460;11.450;2023-04-15T01:42:46;5.55;;;4.07;;
38591;SDS011;24356;48.460;11.450;2023-04-15T01:45:12;10.40;;;5.72;;
38591;SDS011;24356;48.460;11.450;2023-04-15T01:47:38;9.40;;;5.20;;
38591;SDS011;24356;48.460;11.450;2023-04-15T01:50:03;6.93;;;4.68;;
38591;SDS011;24356;48.460;11.450;2023-04-15T01:52:32;8.15;;;4.50;;
38591;SDS011;24356;48.460;11.450;2023-04-15T01:54:57;6.13;;;4.10;;
38591;SDS011;24356;48.460;11.450;2023-04-15T01:57:23;7.88;;;5.03;;
38591;SDS011;24356;48.460;11.450;2023-04-15T01:59:49;8.02;;;5.07;;
38591;SDS011;24356;48.460;11.450;2023-04-15T02:02:16;8.20;;;5.22;;
38591;SDS011;24356;48.460;11.450;2023-04-15T02:04:42;9.25;;;5.70;;
38591;SDS011;24356;48.460;11.450;2023-04-15T02:07:08;6.38;;;4.43;;
38591;SDS011;24356;48.460;11.450;2023-04-15T02:09:34;6.47;;;4.50;;
38591;SDS011;24356;48.460;11.450;2023-04-15T02:12:01;7.13;;;4.90;;
38591;SDS011;24356;48.460;11.450;2023-04-15T02:14:27;9.02;;;4.95;;
38591;SDS011;24356;48.460;11.450;2023-04-15T02:16:52;6.78;;;4.55;;
38591;SDS011;24356;48.460;11.450;2023-04-15T02:19:18;8.75;;;4.82;;
38591;SDS011;24356;48.460;11.450;2023-04-15T02:21:43;9.57;;;5.32;;
38591;SDS011;24356;48.460;11.450;2023-04-15T02:24:09;6.10;;;4.60;;
38591;SDS011;24356;48.460;11.450;2023-04-15T02:26:38;8.38;;;5.10;;
38591;SDS011;24356;48.460;11.450;2023-04-15T02:29:03;6.88;;;4.78;;
38591;SDS011;24356;48.460;11.450;2023-04-15T02:31:29;9.88;;;5.40;;
38591;SDS011;24356;48.460;11.450;2023-04-15T02:34:00;9.90;;;7.07;;
38591;SDS011;24356;48.460;11.450;2023-04-15T02:36:28;7.57;;;5.25;;
38591;SDS011;24356;48.460;11.450;2023-04-15T02:38:55;12.10;;;4.97;;
38591;SDS011;24356;48.460;11.450;2023-04-15T02:41:21;10.90;;;5.00;;
38591;SDS011;24356;48.460;11.450;2023-04-15T02:43:51;8.93;;;5.28;;
38591;SDS011;24356;48.460;11.450;2023-04-15T02:46:16;10.38;;;6.95;;
38591;SDS011;24356;48.460;11.450;2023-04-15T02:48:43;8.43;;;5.60;;
38591;SDS011;24356;48.460;11.450;2023-04-15T02:51:13;11.02;;;6.10;;
38591;SDS011;24356;48.460;11.450;2023-04-15T02:53:39;10.65;;;6.38;;
38591;SDS011;24356;48.460;11.450;2023-04-15T02:56:05;9.23;;;5.07;;
38591;SDS011;24356;48.460;11.450;2023-04-15T02:58:32;9.02;;;5.63;;
38591;SDS011;24356;48.460;11.450;2023-04-15T03:00:58;7.93;;;5.20;;
38591;SDS011;24356;48.460;11.450;2023-04-15T03:03:24;8.20;;;5.10;;
38591;SDS011;24356;48.460;11.450;2023-04-15T03:05:53;11.63;;;6.95;;
38591;SDS011;24356;48.460;11.450;2023-04-15T03:08:18;9.10;;;6.15;;
38591;SDS011;24356;48.460;11.450;2023-04-15T03:10:48;7.30;;;4.93;;
38591;SDS011;24356;48.460;11.450;2023-04-15T03:13:16;13.20;;;6.20;;
38591;SDS011;24356;48.460;11.450;2023-04-15T03:15:42;9.10;;;6.22;;
38591;SDS011;24356;48.460;11.450;2023-04-15T03:18:07;11.07;;;6.50;;
38591;SDS011;24356;48.460;11.450;2023-04-15T03:20:33;8.70;;;5.18;;
38591;SDS011;24356;48.460;11.450;2023-04-15T03:22:59;9.60;;;6.35;;
38591;SDS011;24356;48.460;11.450;2023-04-15T03:25:25;9.90;;;5.72;;
38591;SDS011;24356;48.460;11.450;2023-04-15T03:27:51;8.63;;;5.47;;
38591;SDS011;24356;48.460;11.450;2023-04-15T03:30:17;11.00;;;5.95;;
38591;SDS011;24356;48.460;11.450;2023-04-15T03:32:44;10.15;;;5.70;;
38591;SDS011;24356;48.460;11.450;2023-04-15T03:35:10;12.63;;;7.20;;
38591;SDS011;24356;48.460;11.450;2023-04-15T03:37:35;16.98;;;8.70;;
38591;SDS011;24356;48.460;11.450;2023-04-15T03:40:01;12.82;;;7.45;;
38591;SDS011;24356;48.460;11.450;2023-04-15T03:42:28;7.97;;;5.40;;
38591;SDS011;24356;48.460;11.450;2023-04-15T03:44:54;9.93;;;6.35;;
38591;SDS011;24356;48.460;11.450;2023-04-15T03:47:19;9.15;;;5.80;;
38591;SDS011;24356;48.460;11.450;2023-04-15T03:49:45;11.60;;;6.32;;
38591;SDS011;24356;48.460;11.450;2023-04-15T03:52:11;8.07;;;5.07;;
38591;SDS011;24356;48.460;11.450;2023-04-15T03:54:37;8.95;;;5.65;;
38591;SDS011;24356;48.460;11.450;2023-04-15T03:57:04;10.00;;;5.70;;
38591;SDS011;24356;48.460;11.450;2023-04-15T03:59:30;9.93;;;6.20;;
38591;SDS011;24356;48.460;11.450;2023-04-15T04:01:56;13.93;;;6.72;;
38591;SDS011;24356;48.460;11.450;2023-04-15T04:04:21;10.25;;;6.60;;
38591;SDS011;24356;48.460;11.450;2023-04-15T04:06:47;11.23;;;6.85;;
38591;SDS011;24356;48.460;11.450;2023-04-15T04:09:12;14.75;;;7.53;;
38591;SDS011;24356;48.460;11.450;2023-04-15T04:11:38;11.52;;;6.07;;
38591;SDS011;24356;48.460;11.450;2023-04-15T04:14:03;10.48;;;6.07;;
38591;SDS011;24356;48.460;11.450;2023-04-15T04:16:29;9.50;;;5.68;;
38591;SDS011;24356;48.460;11.450;2023-04-15T04:18:55;8.52;;;5.82;;
38591;SDS011;24356;48.460;11.450;2023-04-15T04:21:21;10.90;;;6.13;;
38591;SDS011;24356;48.460;11.450;2023-04-15T04:23:47;9.10;;;5.65;;
38591;SDS011;24356;48.460;11.450;2023-04-15T04:26:12;8.75;;;6.05;;
38591;SDS011;24356;48.460;11.450;2023-04-15T04:28:38;12.75;;;6.28;;
38591;SDS011;24356;48.460;11.450;2023-04-15T04:31:05;13.93;;;8.10;;
38591;SDS011;24356;48.460;11.450;2023-04-15T04:33:32;9.75;;;6.25;;
38591;SDS011;24356;48.460;11.450;2023-04-15T04:35:58;10.18;;;6.00;;
38591;SDS011;24356;48.460;11.450;2023-04-15T04:38:23;9.48;;;6.15;;
38591;SDS011;24356;48.460;11.450;2023-04-15T04:40:49;11.57;;;6.88;;
38591;SDS011;24356;48.460;11.450;2023-04-15T04:43:15;7.45;;;4.72;;
38591;SDS011;24356;48.460;11.450;2023-04-15T04:45:41;11.55;;;5.93;;
38591;SDS011;24356;48.460;11.450;2023-04-15T04:48:07;13.40;;;6.00;;
38591;SDS011;24356;48.460;11.450;2023-04-15T04:50:34;9.35;;;6.30;;
38591;SDS011;24356;48.460;11.450;2023-04-15T04:53:00;8.43;;;5.60;;
38591;SDS011;24356;48.460;11.450;2023-04-15T04:55:26;9.18;;;5.80;;
38591;SDS011;24356;48.460;11.450;2023-04-15T04:57:52;9.43;;;5.90;;
38591;SDS011;24356;48.460;11.450;2023-04-15T05:00:17;11.70;;;6.45;;
38591;SDS011;24356;48.460;11.450;2023-04-15T05:02:45;11.63;;;6.20;;
38591;SDS011;24356;48.460;11.450;2023-04-15T05:05:11;10.25;;;6.20;;
38591;SDS011;24356;48.460;11.450;2023-04-15T05:07:37;12.32;;;7.05;;
38591;SDS011;24356;48.460;11.450;2023-04-15T05:10:03;13.10;;;6.90;;
38591;SDS011;24356;48.460;11.450;2023-04-15T05:12:30;14.50;;;8.30;;
38591;SDS011;24356;48.460;11.450;2023-04-15T05:14:58;14.55;;;8.48;;
38591;SDS011;24356;48.460;11.450;2023-04-15T05:17:23;13.98;;;6.93;;
38591;SDS011;24356;48.460;11.450;2023-04-15T05:19:49;12.13;;;6.30;;
38591;SDS011;24356;48.460;11.450;2023-04-15T05:22:14;10.52;;;6.80;;
38591;SDS011;24356;48.460;11.450;2023-04-15T05:24:40;13.98;;;7.80;;
38591;SDS011;24356;48.460;11.450;2023-04-15T05:27:06;10.75;;;6.50;;
38591;SDS011;24356;48.460;11.450;2023-04-15T05:29:32;14.07;;;6.53;;
38591;SDS011;24356;48.460;11.450;2023-04-15T05:32:00;9.77;;;6.00;;
38591;SDS011;24356;48.460;11.450;2023-04-15T05:34:25;10.10;;;6.90;;
38591;SDS011;24356;48.460;11.450;2023-04-15T05:36:51;15.75;;;7.50;;
38591;SDS011;24356;48.460;11.450;2023-04-15T05:39:16;9.68;;;5.75;;
38591;SDS011;24356;48.460;11.450;2023-04-15T05:41:42;9.38;;;6.63;;
38591;SDS011;24356;48.460;11.450;2023-04-15T05:44:08;11.90;;;7.35;;
38591;SDS011;24356;48.460;11.450;2023-04-15T05:46:34;10.48;;;6.97;;
38591;SDS011;24356;48.460;11.450;2023-04-15T05:48:59;10.43;;;5.97;;
38591;SDS011;24356;48.460;11.450;2023-04-15T05:51:25;8.50;;;5.70;;
38591;SDS011;24356;48.460;11.450;2023-04-15T05:53:51;9.85;;;6.40;;
38591;SDS011;24356;48.460;11.450;2023-04-15T05:56:16;9.85;;;5.75;;
38591;SDS011;24356;48.460;11.450;2023-04-15T05:58:42;10.48;;;5.85;;
38591;SDS011;24356;48.460;11.450;2023-04-15T06:01:08;9.25;;;5.78;;
38591;SDS011;24356;48.460;11.450;2023-04-15T06:03:33;8.45;;;5.78;;
38591;SDS011;24356;48.460;11.450;2023-04-15T06:05:59;10.63;;;6.18;;
38591;SDS011;24356;48.460;11.450;2023-04-15T06:08:25;10.05;;;5.70;;
38591;SDS011;24356;48.460;11.450;2023-04-15T06:10:51;7.15;;;4.53;;
38591;SDS011;24356;48.460;11.450;2023-04-15T06:13:17;11.88;;;6.97;;
38591;SDS011;24356;48.460;11.450;2023-04-15T06:15:43;8.02;;;4.85;;
38591;SDS011;24356;48.460;11.450;2023-04-15T06:18:08;9.20;;;5.93;;
38591;SDS011;24356;48.460;11.450;2023-04-15T06:20:35;9.23;;;5.40;;
38591;SDS011;24356;48.460;11.450;2023-04-15T06:23:01;10.07;;;6.07;;
38591;SDS011;24356;48.460;11.450;2023-04-15T06:25:27;8.85;;;5.78;;
38591;SDS011;24356;48.460;11.450;2023-04-15T06:27:52;8.20;;;4.93;;
38591;SDS011;24356;48.460;11.450;2023-04-15T06:30:18;12.48;;;6.68;;
38591;SDS011;24356;48.460;11.450;2023-04-15T06:32:44;8.88;;;5.90;;
38591;SDS011;24356;48.460;11.450;2023-04-15T06:35:10;7.25;;;5.03;;
38591;SDS011;24356;48.460;11.450;2023-04-15T06:37:37;12.18;;;6.35;;
38591;SDS011;24356;48.460;11.450;2023-04-15T06:40:02;9.13;;;5.93;;
38591;SDS011;24356;48.460;11.450;2023-04-15T06:42:29;7.82;;;4.88;;
38591;SDS011;24356;48.460;11.450;2023-04-15T06:44:55;10.23;;;6.55;;
38591;SDS011;24356;48.460;11.450;2023-04-15T06:47:22;10.10;;;5.63;;
38591;SDS011;24356;48.460;11.450;2023-04-15T06:49:47;9.85;;;5.45;;
38591;SDS011;24356;48.460;11.450;2023-04-15T06:52:13;9.63;;;5.18;;
38591;SDS011;24356;48.460;11.450;2023-04-15T06:54:40;7.70;;;4.93;;
38591;SDS011;24356;48.460;11.450;2023-04-15T06:57:06;9.85;;;5.82;;
38591;SDS011;24356;48.460;11.450;2023-04-15T06:59:33;8.50;;;5.03;;
38591;SDS011;24356;48.460;11.450;2023-04-15T07:01:58;6.65;;;4.45;;
38591;SDS011;24356;48.460;11.450;2023-04-15T07:04:24;9.00;;;5.40;;
38591;SDS011;24356;48.460;11.450;2023-04-15T07:06:50;8.85;;;5.40;;
38591;SDS011;24356;48.460;11.450;2023-04-15T07:09:15;6.82;;;4.93;;
38591;SDS011;24356;48.460;11.450;2023-04-15T07:11:41;8.05;;;5.40;;
38591;SDS011;24356;48.460;11.450;2023-04-15T07:14:06;8.75;;;5.60;;
38591;SDS011;24356;48.460;11.450;2023-04-15T07:16:32;12.63;;;5.95;;
38591;SDS011;24356;48.460;11.450;2023-04-15T07:18:57;11.60;;;5.63;;
38591;SDS011;24356;48.460;11.450;2023-04-15T07:21:23;8.77;;;5.10;;
38591;SDS011;24356;48.460;11.450;2023-04-15T07:23:49;10.15;;;5.47;;
38591;SDS011;24356;48.460;11.450;2023-04-15T07:26:15;8.85;;;5.95;;
38591;SDS011;24356;48.460;11.450;2023-04-15T07:28:40;11.90;;;5.40;;
38591;SDS011;24356;48.460;11.450;2023-04-15T07:31:06;10.73;;;5.53;;
38591;SDS011;24356;48.460;11.450;2023-04-15T07:33:31;6.78;;;4.50;;
38591;SDS011;24356;48.460;11.450;2023-04-15T07:35:57;7.68;;;4.97;;
38591;SDS011;24356;48.460;11.450;2023-04-15T07:38:23;11.63;;;5.50;;
38591;SDS011;24356;48.460;11.450;2023-04-15T07:40:49;8.68;;;4.88;;
38591;SDS011;24356;48.460;11.450;2023-04-15T07:43:16;9.05;;;5.25;;
38591;SDS011;24356;48.460;11.450;2023-04-15T07:45:42;7.75;;;4.20;;
38591;SDS011;24356;48.460;11.450;2023-04-15T07:48:08;7.47;;;4.22;;
38591;SDS011;24356;48.460;11.450;2023-04-15T07:50:33;7.00;;;4.50;;
38591;SDS011;24356;48.460;11.450;2023-04-15T07:52:59;5.82;;;3.85;;
38591;SDS011;24356;48.460;11.450;2023-04-15T07:55:25;6.45;;;4.20;;
38591;SDS011;24356;48.460;11.450;2023-04-15T07:57:50;6.47;;;4.35;;
38591;SDS011;24356;48.460;11.450;2023-04-15T08:00:16;5.97;;;3.97;;
38591;SDS011;24356;48.460;11.450;2023-04-15T08:02:42;7.90;;;4.10;;
38591;SDS011;24356;48.460;11.450;2023-04-15T08:05:08;6.53;;;4.30;;
38591;SDS011;24356;48.460;11.450;2023-04-15T08:07:35;7.90;;;4.45;;
38591;SDS011;24356;48.460;11.450;2023-04-15T08:10:02;8.30;;;4.85;;
38591;SDS011;24356;48.460;11.450;2023-04-15T08:12:28;8.55;;;4.00;;
38591;SDS011;24356;48.460;11.450;2023-04-15T08:14:55;8.38;;;4.80;;
38591;SDS011;24356;48.460;11.450;2023-04-15T08:17:21;7.78;;;4.55;;
38591;SDS011;24356;48.460;11.450;2023-04-15T08:19:47;8.13;;;4.60;;
38591;SDS011;24356;48.460;11.450;2023-04-15T08:22:14;6.35;;;4.13;;
38591;SDS011;24356;48.460;11.450;2023-04-15T08:24:40;8.15;;;4.88;;
38591;SDS011;24356;48.460;11.450;2023-04-15T08:27:06;12.82;;;5.45;;
38591;SDS011;24356;48.460;11.450;2023-04-15T08:29:32;7.50;;;4.47;;
38591;SDS011;24356;48.460;11.450;2023-04-15T08:32:01;9.68;;;4.35;;
38591;SDS011;24356;48.460;11.450;2023-04-15T08:34:27;8.05;;;4.60;;
38591;SDS011;24356;48.460;11.450;2023-04-15T08:36:53;9.02;;;4.63;;
38591;SDS011;24356;48.460;11.450;2023-04-15T08:39:19;10.77;;;4.40;;
38591;SDS011;24356;48.460;11.450;2023-04-15T08:41:45;5.75;;;3.92;;
38591;SDS011;24356;48.460;11.450;2023-04-15T08:44:12;10.23;;;5.25;;
38591;SDS011;24356;48.460;11.450;2023-04-15T08:46:38;21.92;;;12.05;;
38591;SDS011;24356;48.460;11.450;2023-04-15T08:49:07;7.75;;;4.85;;
38591;SDS011;24356;48.460;11.450;2023-04-15T08:51:34;9.73;;;5.00;;
38591;SDS011;24356;48.460;11.450;2023-04-15T08:54:01;10.02;;;4.97;;
38591;SDS011;24356;48.460;11.450;2023-04-15T08:56:27;8.70;;;4.40;;
38591;SDS011;24356;48.460;11.450;2023-04-15T08:58:58;9.45;;;4.57;;
38591;SDS011;24356;48.460;11.450;2023-04-15T09:01:25;9.13;;;4.43;;
38591;SDS011;24356;48.460;11.450;2023-04-15T09:03:51;8.85;;;4.35;;
38591;SDS011;24356;48.460;11.450;2023-04-15T09:06:20;9.27;;;4.47;;
38591;SDS011;24356;48.460;11.450;2023-04-15T09:08:47;8.80;;;4.63;;
38591;SDS011;24356;48.460;11.450;2023-04-15T09:11:13;9.45;;;4.65;;
38591;SDS011;24356;48.460;11.450;2023-04-15T09:13:39;8.38;;;3.97;;
38591;SDS011;24356;48.460;11.450;2023-04-15T09:16:05;6.95;;;4.25;;
38591;SDS011;24356;48.460;11.450;2023-04-15T09:18:35;8.00;;;4.18;;
38591;SDS011;24356;48.460;11.450;2023-04-15T09:21:10;6.82;;;3.80;;
38591;SDS011;24356;48.460;11.450;2023-04-15T09:26:04;6.93;;;4.05;;
38591;SDS011;24356;48.460;11.450;2023-04-15T09:28:30;7.25;;;3.95;;
38591;SDS011;24356;48.460;11.450;2023-04-15T09:31:00;6.32;;;4.07;;
38591;SDS011;24356;48.460;11.450;2023-04-15T09:33:27;8.27;;;4.43;;
38591;SDS011;24356;48.460;11.450;2023-04-15T09:35:58;8.02;;;4.25;;
38591;SDS011;24356;48.460;11.450;2023-04-15T09:38:26;7.60;;;4.38;;
38591;SDS011;24356;48.460;11.450;2023-04-15T09:40:52;8.07;;;3.88;;
38591;SDS011;24356;48.460;11.450;2023-04-15T09:43:18;5.95;;;3.88;;
38591;SDS011;24356;48.460;11.450;2023-04-15T09:45:48;6.80;;;4.10;;
38591;SDS011;24356;48.460;11.450;2023-04-15T09:50:48;7.27;;;3.90;;
38591;SDS011;24356;48.460;11.450;2023-04-15T09:53:18;9.15;;;4.65;;
38591;SDS011;24356;48.460;11.450;2023-04-15T09:55:46;8.70;;;4.40;;
38591;SDS011;24356;48.460;11.450;2023-04-15T09:58:20;6.53;;;4.47;;
38591;SDS011;24356;48.460;11.450;2023-04-15T10:00:47;6.93;;;4.30;;
38591;SDS011;24356;48.460;11.450;2023-04-15T10:03:18;6.68;;;3.88;;
38591;SDS011;24356;48.460;11.450;2023-04-15T10:05:45;7.47;;;4.25;;
38591;SDS011;24356;48.460;11.450;2023-04-15T10:08:13;6.80;;;4.25;;
38591;SDS011;24356;48.460;11.450;2023-04-15T10:10:41;6.82;;;3.78;;
38591;SDS011;24356;48.460;11.450;2023-04-15T10:13:07;10.80;;;4.47;;
38591;SDS011;24356;48.460;11.450;2023-04-15T10:15:35;7.60;;;3.95;;
38591;SDS011;24356;48.460;11.450;2023-04-15T10:18:01;7.88;;;5.10;;
38591;SDS011;24356;48.460;11.450;2023-04-15T10:20:29;9.23;;;4.07;;
38591;SDS011;24356;48.460;11.450;2023-04-15T10:22:55;6.35;;;4.10;;
38591;SDS011;24356;48.460;11.450;2023-04-15T10:25:22;9.10;;;4.63;;
38591;SDS011;24356;48.460;11.450;2023-04-15T10:27:50;6.18;;;3.97;;
38591;SDS011;24356;48.460;11.450;2023-04-15T10:30:17;8.73;;;4.07;;
38591;SDS011;24356;48.460;11.450;2023-04-15T10:32:43;6.20;;;3.92;;
38591;SDS011;24356;48.460;11.450;2023-04-15T10:35:09;7.13;;;4.47;;
38591;SDS011;24356;48.460;11.450;2023-04-15T10:37:37;6.55;;;3.75;;
38591;SDS011;24356;48.460;11.450;2023-04-15T10:42:48;5.10;;;3.67;;
38591;SDS011;24356;48.460;11.450;2023-04-15T10:45:17;6.50;;;3.85;;
38591;SDS011;24356;48.460;11.450;2023-04-15T10:47:43;6.97;;;3.90;;
38591;SDS011;24356;48.460;11.450;2023-04-15T10:50:09;8.68;;;4.13;;
38591;SDS011;24356;48.460;11.450;2023-04-15T10:52:36;4.93;;;4.07;;
38591;SDS011;24356;48.460;11.450;2023-04-15T10:57:34;7.88;;;4.28;;
38591;SDS011;24356;48.460;11.450;2023-04-15T11:00:10;5.18;;;3.67;;
38591;SDS011;24356;48.460;11.450;2023-04-15T11:05:08;5.93;;;4.18;;
38591;SDS011;24356;48.460;11.450;2023-04-15T11:10:10;8.50;;;3.83;;
38591;SDS011;24356;48.460;11.450;2023-04-15T11:13:01;7.85;;;4.35;;
38591;SDS011;24356;48.460;11.450;2023-04-15T11:18:08;8.02;;;4.43;;
38591;SDS011;24356;48.460;11.450;2023-04-15T11:20:35;5.53;;;3.72;;
38591;SDS011;24356;48.460;11.450;2023-04-15T11:23:01;6.15;;;4.05;;
38591;SDS011;24356;48.460;11.450;2023-04-15T11:25:27;5.85;;;3.65;;
38591;SDS011;24356;48.460;11.450;2023-04-15T11:27:55;5.70;;;3.90;;
38591;SDS011;24356;48.460;11.450;2023-04-15T11:30:22;8.95;;;4.85;;
38591;SDS011;24356;48.460;11.450;2023-04-15T11:32:52;7.32;;;4.45;;
38591;SDS011;24356;48.460;11.450;2023-04-15T11:37:49;6.78;;;4.70;;
38591;SDS011;24356;48.460;11.450;2023-04-15T11:40:15;6.13;;;4.45;;
38591;SDS011;24356;48.460;11.450;2023-04-15T11:42:42;7.90;;;4.43;;
38591;SDS011;24356;48.460;11.450;2023-04-15T11:45:13;8.23;;;4.30;;
38591;SDS011;24356;48.460;11.450;2023-04-15T11:47:42;6.97;;;4.50;;
38591;SDS011;24356;48.460;11.450;2023-04-15T11:50:21;10.52;;;4.32;;
38591;SDS011;24356;48.460;11.450;2023-04-15T11:52:54;8.35;;;4.72;;
38591;SDS011;24356;48.460;11.450;2023-04-15T11:55:28;7.95;;;4.95;;
38591;SDS011;24356;48.460;11.450;2023-04-15T12:00:33;7.82;;;4.05;;
38591;SDS011;24356;48.460;11.450;2023-04-15T12:11:29;7.90;;;5.15;;
38591;SDS011;24356;48.460;11.450;2023-04-15T12:14:10;7.15;;;4.25;;
38591;SDS011;24356;48.460;11.450;2023-04-15T12:16:41;7.25;;;4.28;;
38591;SDS011;24356;48.460;11.450;2023-04-15T12:19:09;5.28;;;3.90;;
38591;SDS011;24356;48.460;11.450;2023-04-15T12:21:37;9.27;;;4.50;;
38591;SDS011;24356;48.460;11.450;2023-04-15T12:24:06;8.13;;;4.13;;
38591;SDS011;24356;48.460;11.450;2023-04-15T12:26:34;8.85;;;5.38;;
38591;SDS011;24356;48.460;11.450;2023-04-15T12:29:14;6.68;;;4.53;;
38591;SDS011;24356;48.460;11.450;2023-04-15T12:34:30;5.53;;;3.70;;
38591;SDS011;24356;48.460;11.450;2023-04-15T12:36:58;8.50;;;5.40;;
38591;SDS011;24356;48.460;11.450;2023-04-15T12:39:25;7.80;;;4.72;;
38591;SDS011;24356;48.460;11.450;2023-04-15T12:41:52;8.73;;;4.25;;
38591;SDS011;24356;48.460;11.450;2023-04-15T12:44:19;11.48;;;5.07;;
38591;SDS011;24356;48.460;11.450;2023-04-15T12:46:46;6.90;;;4.22;;
38591;SDS011;24356;48.460;11.450;2023-04-15T12:49:12;9.60;;;4.47;;
38591;SDS011;24356;48.460;11.450;2023-04-15T12:51:43;9.45;;;5.05;;
38591;SDS011;24356;48.460;11.450;2023-04-15T12:54:09;8.02;;;4.28;;
38591;SDS011;24356;48.460;11.450;2023-04-15T12:56:35;6.57;;;3.83;;
38591;SDS011;24356;48.460;11.450;2023-04-15T12:59:00;7.60;;;4.07;;
38591;SDS011;24356;48.460;11.450;2023-04-15T13:01:26;5.18;;;3.47;;
38591;SDS011;24356;48.460;11.450;2023-04-15T13:03:52;5.05;;;3.47;;
38591;SDS011;24356;48.460;11.450;2023-04-15T13:06:18;6.57;;;3.38;;
38591;SDS011;24356;48.460;11.450;2023-04-15T13:08:44;6.68;;;4.13;;
38591;SDS011;24356;48.460;11.450;2023-04-15T13:11:10;4.90;;;3.80;;
38591;SDS011;24356;48.460;11.450;2023-04-15T13:13:35;6.13;;;3.70;;
38591;SDS011;24356;48.460;11.450;2023-04-15T13:16:01;4.78;;;3.28;;
38591;SDS011;24356;48.460;11.450;2023-04-15T13:18:27;6.15;;;3.42;;
38591;SDS011;24356;48.460;11.450;2023-04-15T13:20:53;4.43;;;3.13;;
38591;SDS011;24356;48.460;11.450;2023-04-15T13:23:20;3.58;;;2.92;;
38591;SDS011;24356;48.460;11.450;2023-04-15T13:25:45;6.10;;;2.80;;
38591;SDS011;24356;48.460;11.450;2023-04-15T13:28:11;4.15;;;3.00;;
38591;SDS011;24356;48.460;11.450;2023-04-15T13:30:37;4.78;;;2.88;;
38591;SDS011;24356;48.460;11.450;2023-04-15T13:33:03;7.38;;;3.13;;
38591;SDS011;24356;48.460;11.450;2023-04-15T13:35:29;4.55;;;2.70;;
38591;SDS011;24356;48.460;11.450;2023-04-15T13:37:56;5.78;;;3.40;;
38591;SDS011;24356;48.460;11.450;2023-04-15T13:40:23;4.68;;;2.83;;
38591;SDS011;24356;48.460;11.450;2023-04-15T13:42:49;6.43;;;2.60;;
38591;SDS011;24356;48.460;11.450;2023-04-15T13:45:17;5.70;;;2.78;;
38591;SDS011;24356;48.460;11.450;2023-04-15T13:47:42;3.88;;;2.58;;
38591;SDS011;24356;48.460;11.450;2023-04-15T13:50:08;6.50;;;2.90;;
38591;SDS011;24356;48.460;11.450;2023-04-15T13:52:36;3.85;;;2.17;;
38591;SDS011;24356;48.460;11.450;2023-04-15T13:55:02;3.90;;;2.70;;
38591;SDS011;24356;48.460;11.450;2023-04-15T13:57:28;4.32;;;2.72;;
38591;SDS011;24356;48.460;11.450;2023-04-15T13:59:54;4.57;;;3.22;;
38591;SDS011;24356;48.460;11.450;2023-04-15T14:02:20;4.78;;;2.70;;
38591;SDS011;24356;48.460;11.450;2023-04-15T14:04:47;5.20;;;2.90;;
38591;SDS011;24356;48.460;11.450;2023-04-15T14:07:13;3.72;;;2.70;;
38591;SDS011;24356;48.460;11.450;2023-04-15T14:09:38;4.82;;;3.20;;
38591;SDS011;24356;48.460;11.450;2023-04-15T14:12:04;6.30;;;3.63;;
38591;SDS011;24356;48.460;11.450;2023-04-15T14:14:31;2.90;;;2.40;;
38591;SDS011;24356;48.460;11.450;2023-04-15T14:16:57;4.70;;;2.80;;
38591;SDS011;24356;48.460;11.450;2023-04-15T14:19:23;3.95;;;2.85;;
38591;SDS011;24356;48.460;11.450;2023-04-15T14:21:49;3.95;;;3.03;;
38591;SDS011;24356;48.460;11.450;2023-04-15T14:24:14;4.63;;;2.67;;
38591;SDS011;24356;48.460;11.450;2023-04-15T14:26:41;4.28;;;3.30;;
38591;SDS011;24356;48.460;11.450;2023-04-15T14:29:10;5.55;;;2.97;;
38591;SDS011;24356;48.460;11.450;2023-04-15T14:31:36;4.70;;;2.88;;
38591;SDS011;24356;48.460;11.450;2023-04-15T14:34:02;4.57;;;3.10;;
38591;SDS011;24356;48.460;11.450;2023-04-15T14:36:28;5.63;;;3.03;;
38591;SDS011;24356;48.460;11.450;2023-04-15T14:38:53;4.97;;;3.13;;
38591;SDS011;24356;48.460;11.450;2023-04-15T14:41:19;4.82;;;3.50;;
38591;SDS011;24356;48.460;11.450;2023-04-15T14:43:48;5.25;;;3.13;;
38591;SDS011;24356;48.460;11.450;2023-04-15T14:46:13;3.45;;;2.80;;
38591;SDS011;24356;48.460;11.450;2023-04-15T14:48:39;6.45;;;2.95;;
38591;SDS011;24356;48.460;11.450;2023-04-15T14:51:05;7.10;;;3.47;;
38591;SDS011;24356;48.460;11.450;2023-04-15T14:53:31;3.50;;;2.50;;
38591;SDS011;24356;48.460;11.450;2023-04-15T14:55:57;3.33;;;2.80;;
38591;SDS011;24356;48.460;11.450;2023-04-15T14:58:22;4.38;;;3.28;;
38591;SDS011;24356;48.460;11.450;2023-04-15T15:00:48;5.35;;;3.47;;